Time;durP1;ratioP1;P1;durP2;ratioP2;P2;SDS_P1;SDS_P2;PMS_P1;PMS_P2;Temp;Humidity;BMP_temperature;BMP_pressure;BME280_temperature;BME280_humidity;BME280_pressure;Samples;Min_cycle;Max_cycle;Signal;HPM_P1;HPM_P2
2022/08/02 00:01:31;;;;;;;1.33;0.70;;;15.80;77.50;;;;;;5048072;28;20028;-62
2022/08/02 00:03:57;;;;;;;2.60;1.08;;;15.80;77.60;;;;;;5045553;28;20135;-61
2022/08/02 00:06:23;;;;;;;2.38;0.82;;;15.80;77.60;;;;;;5045678;28;20465;-62
2022/08/02 00:08:48;;;;;;;1.80;0.70;;;15.80;77.50;;;;;;5044394;28;20021;-62
2022/08/02 00:11:14;;;;;;;1.15;0.50;;;15.80;77.40;;;;;;5047745;28;20074;-62
2022/08/02 00:13:39;;;;;;;1.77;0.63;;;15.80;77.50;;;;;;5045816;28;20086;-62
2022/08/02 00:16:05;;;;;;;1.52;0.60;;;15.80;77.40;;;;;;5048453;28;20035;-62
2022/08/02 00:18:30;;;;;;;1.30;0.60;;;15.80;77.30;;;;;;5030345;28;20374;-62
2022/08/02 00:20:56;;;;;;;1.98;0.60;;;15.70;77.20;;;;;;5020116;28;20417;-62
2022/08/02 00:23:21;;;;;;;2.20;0.60;;;15.80;77.30;;;;;;5046525;28;20431;-62
2022/08/02 00:25:47;;;;;;;4.10;0.55;;;15.70;77.40;;;;;;5045787;28;20098;-62
2022/08/02 00:28:13;;;;;;;1.42;0.60;;;15.70;77.40;;;;;;5047412;28;20021;-62
2022/08/02 00:30:38;;;;;;;1.88;0.57;;;15.70;77.30;;;;;;5045906;28;20028;-61
2022/08/02 00:33:04;;;;;;;2.47;0.50;;;15.70;77.30;;;;;;5045342;28;20409;-62
2022/08/02 00:35:34;;;;;;;1.20;0.43;;;15.70;77.40;;;;;;5045881;28;20392;-61
2022/08/02 00:38:00;;;;;;;1.00;0.40;;;15.70;77.50;;;;;;5047283;28;20082;-61
2022/08/02 00:40:25;;;;;;;1.35;0.60;;;15.70;77.60;;;;;;5046588;28;20065;-61
2022/08/02 00:43:03;;;;;;;1.45;0.57;;;15.60;77.80;;;;;;5045932;28;20508;-62
2022/08/02 00:45:30;;;;;;;2.05;0.52;;;15.60;78.00;;;;;;5048232;28;20017;-62
2022/08/02 00:47:56;;;;;;;0.80;0.40;;;15.60;78.20;;;;;;5044520;28;20022;-61
2022/08/02 00:50:21;;;;;;;1.13;0.40;;;15.60;78.30;;;;;;5046004;28;20020;-61
2022/08/02 00:52:47;;;;;;;1.33;0.40;;;15.60;78.50;;;;;;5044171;28;20167;-61
2022/08/02 00:55:13;;;;;;;0.68;0.50;;;15.60;78.60;;;;;;5046182;28;20043;-62
2022/08/02 00:57:38;;;;;;;1.38;0.60;;;15.50;78.60;;;;;;5015852;28;20026;-62
2022/08/02 01:00:05;;;;;;;2.55;0.52;;;15.50;78.80;;;;;;5045753;28;20021;-61
2022/08/02 01:02:30;;;;;;;1.55;0.60;;;15.50;79.00;;;;;;5044625;28;20051;-62
2022/08/02 01:04:56;;;;;;;1.90;0.57;;;15.50;79.30;;;;;;5048175;28;20029;-61
2022/08/02 01:07:21;;;;;;;2.10;0.50;;;15.50;79.40;;;;;;5044792;28;20025;-61
2022/08/02 01:09:47;;;;;;;0.95;0.50;;;15.40;79.60;;;;;;5045844;28;20028;-61
2022/08/02 01:12:12;;;;;;;1.52;0.55;;;15.40;79.60;;;;;;5047759;28;20021;-61
2022/08/02 01:14:40;;;;;;;1.08;0.65;;;15.40;79.70;;;;;;5045767;28;20051;-61
2022/08/02 01:17:12;;;;;;;1.52;0.50;;;15.40;79.90;;;;;;5044607;28;20086;-61
2022/08/02 01:19:42;;;;;;;1.42;0.82;;;15.50;80.00;;;;;;5049824;28;20021;-61
2022/08/02 01:22:21;;;;;;;1.25;0.60;;;15.40;79.90;;;;;;5049624;28;20496;-62
2022/08/02 01:24:56;;;;;;;;;;;15.40;80.20;;;;;;5049377;28;20037;-61
2022/08/02 01:27:40;;;;;;;1.10;0.40;;;15.30;80.10;;;;;;5050343;28;19974;-62
2022/08/02 01:30:06;;;;;;;2.72;0.60;;;15.30;80.50;;;;;;5047373;28;20155;-61
2022/08/02 01:32:36;;;;;;;2.13;0.50;;;15.20;80.60;;;;;;5049542;28;20052;-61
2022/08/02 01:35:08;;;;;;;1.77;0.60;;;15.30;80.70;;;;;;5048750;28;20027;-61
2022/08/02 01:37:39;;;;;;;3.25;0.40;;;15.30;80.70;;;;;;5050883;28;20028;-61
2022/08/02 01:40:15;;;;;;;1.02;0.40;;;15.30;80.70;;;;;;5050644;28;20120;-61
2022/08/02 01:42:45;;;;;;;1.65;0.60;;;15.30;81.20;;;;;;5050953;28;20033;-62
2022/08/02 01:45:13;;;;;;;1.35;0.40;;;15.30;80.50;;;;;;5033890;28;20029;-61
2022/08/02 01:47:41;;;;;;;2.30;0.50;;;15.30;80.20;;;;;;5052234;28;20477;-61
2022/08/02 01:50:09;;;;;;;3.85;0.50;;;15.40;80.00;;;;;;5051240;28;20517;-62
2022/08/02 01:52:41;;;;;;;5.50;0.82;;;15.40;79.90;;;;;;5047905;28;20025;-61
2022/08/02 01:55:11;;;;;;;2.53;0.90;;;15.30;80.40;;;;;;5050172;28;20501;-61
2022/08/02 01:57:46;;;;;;;2.85;0.88;;;15.20;80.80;;;;;;5050170;28;20029;-61
2022/08/02 02:00:13;;;;;;;2.45;0.70;;;15.20;81.70;;;;;;5049749;28;20389;-61
2022/08/02 02:02:43;;;;;;;1.85;0.68;;;15.20;81.00;;;;;;5048469;28;20045;-61
2022/08/02 02:05:13;;;;;;;;;;;15.20;80.90;;;;;;5032861;28;20072;-61
2022/08/02 02:07:40;;;;;;;1.77;0.68;;;15.20;81.00;;;;;;5047391;28;20461;-61
2022/08/02 02:10:07;;;;;;;1.85;0.65;;;15.10;81.10;;;;;;5050071;28;20051;-61
2022/08/02 02:12:35;;;;;;;0.90;0.40;;;15.20;80.80;;;;;;5049549;28;20123;-61
2022/08/02 02:15:02;;;;;;;2.15;0.70;;;15.20;80.60;;;;;;5045060;28;20086;-61
2022/08/02 02:17:30;;;;;;;3.40;0.60;;;15.20;80.60;;;;;;5050566;28;20033;-61
2022/08/02 02:19:58;;;;;;;1.67;0.63;;;15.20;81.00;;;;;;5050067;28;20067;-61
2022/08/02 02:22:24;;;;;;;1.57;0.70;;;15.10;81.20;;;;;;5048058;28;20021;-61
2022/08/02 02:24:50;;;;;;;2.05;0.55;;;15.10;81.40;;;;;;5047677;28;20032;-61
2022/08/02 02:27:16;;;;;;;0.90;0.50;;;15.10;82.30;;;;;;5048178;28;20483;-62
2022/08/02 02:29:45;;;;;;;1.25;0.43;;;15.00;81.80;;;;;;5048984;28;20020;-61
2022/08/02 02:32:13;;;;;;;1.40;0.50;;;15.00;81.90;;;;;;5028689;28;20029;-61
2022/08/02 02:34:43;;;;;;;2.17;0.60;;;15.00;82.00;;;;;;5047866;28;20021;-61
2022/08/02 02:37:15;;;;;;;1.75;0.50;;;15.00;82.70;;;;;;5029877;28;20044;-61
2022/08/02 02:39:43;;;;;;;2.08;0.40;;;15.00;82.00;;;;;;5047153;28;20033;-61
2022/08/02 02:42:13;;;;;;;0.80;0.40;;;15.00;82.00;;;;;;5027827;28;20031;-61
2022/08/02 02:44:40;;;;;;;1.77;0.40;;;15.00;82.10;;;;;;5046900;28;20029;-61
2022/08/02 02:47:07;;;;;;;1.52;0.50;;;15.00;82.10;;;;;;5047568;28;20377;-61
2022/08/02 02:49:35;;;;;;;1.85;0.55;;;15.00;82.10;;;;;;5048137;28;20477;-61
2022/08/02 02:52:03;;;;;;;2.63;0.40;;;15.00;82.30;;;;;;5047531;28;20036;-61
2022/08/02 02:54:30;;;;;;;1.35;0.40;;;14.90;82.40;;;;;;5047072;28;20025;-61
2022/08/02 02:56:58;;;;;;;0.88;0.40;;;14.90;82.50;;;;;;5046936;28;20033;-61
2022/08/02 02:59:24;;;;;;;2.78;0.47;;;14.90;82.60;;;;;;5048716;28;20542;-62
2022/08/02 03:01:51;;;;;;;0.88;0.60;;;14.90;82.70;;;;;;5050226;28;20040;-61
2022/08/02 03:04:19;;;;;;;1.70;0.40;;;14.90;82.80;;;;;;5050390;28;20569;-61
2022/08/02 03:06:45;;;;;;;2.38;0.50;;;14.90;83.00;;;;;;5048063;28;20052;-61
2022/08/02 03:09:11;;;;;;;0.85;0.40;;;14.90;83.20;;;;;;5047606;28;20025;-61
2022/08/02 03:11:37;;;;;;;0.98;0.50;;;14.90;83.40;;;;;;5049437;28;20017;-61
2022/08/02 03:14:07;;;;;;;2.53;0.63;;;14.90;83.60;;;;;;5047341;28;20032;-61
2022/08/02 03:16:32;;;;;;;2.15;0.50;;;14.80;83.80;;;;;;5046637;28;20029;-61
2022/08/02 03:19:02;;;;;;;1.30;0.40;;;14.80;84.10;;;;;;5048129;28;20038;-61
2022/08/02 03:21:27;;;;;;;1.05;0.50;;;14.80;84.30;;;;;;5044794;28;20388;-61
2022/08/02 03:23:53;;;;;;;1.25;0.50;;;14.70;84.40;;;;;;5047632;28;20029;-61
2022/08/02 03:26:20;;;;;;;1.67;0.50;;;14.70;84.60;;;;;;5044642;28;20085;-61
2022/08/02 03:28:45;;;;;;;2.65;0.45;;;14.70;84.60;;;;;;5048546;28;20017;-61
2022/08/02 03:31:11;;;;;;;1.98;0.50;;;14.70;84.60;;;;;;5046753;28;20025;-61
2022/08/02 03:33:37;;;;;;;1.88;0.65;;;14.70;84.70;;;;;;5047486;28;20025;-62
2022/08/02 03:36:09;;;;;;;1.95;0.68;;;14.70;84.80;;;;;;5047746;28;20400;-63
2022/08/02 03:38:36;;;;;;;1.30;0.60;;;14.70;84.90;;;;;;5047653;28;20028;-61
2022/08/02 03:41:04;;;;;;;3.67;0.60;;;14.70;85.00;;;;;;5043497;28;20032;-62
2022/08/02 03:43:30;;;;;;;1.52;0.50;;;14.70;85.30;;;;;;5048871;28;20538;-61
2022/08/02 03:45:57;;;;;;;1.67;0.43;;;14.70;85.50;;;;;;5047521;28;20029;-61
2022/08/02 03:48:26;;;;;;;4.65;0.55;;;14.70;85.70;;;;;;5047301;28;20063;-61
2022/08/02 03:50:51;;;;;;;2.05;0.60;;;14.70;85.80;;;;;;5024505;28;20033;-62
2022/08/02 03:53:18;;;;;;;1.33;0.60;;;14.60;86.00;;;;;;5048024;28;20066;-61
2022/08/02 03:55:44;;;;;;;1.85;0.60;;;14.60;86.20;;;;;;5047002;28;20112;-62
2022/08/02 03:58:19;;;;;;;2.15;0.50;;;14.70;86.40;;;;;;5046238;28;20508;-61
2022/08/02 04:00:45;;;;;;;1.40;0.60;;;14.70;86.50;;;;;;5048445;28;20412;-61
2022/08/02 04:03:10;;;;;;;1.73;0.50;;;14.70;86.60;;;;;;5046993;28;20049;-61
2022/08/02 04:05:36;;;;;;;1.42;0.70;;;14.70;86.70;;;;;;5029668;28;20021;-61
2022/08/02 04:08:01;;;;;;;1.25;0.70;;;14.70;86.70;;;;;;5046277;28;20029;-61
2022/08/02 04:10:27;;;;;;;3.75;1.02;;;14.80;86.90;;;;;;5047101;28;20024;-61
2022/08/02 04:12:54;;;;;;;9.40;1.65;;;14.80;87.60;;;;;;5048193;28;20033;-61
2022/08/02 04:15:21;;;;;;;4.10;1.58;;;14.80;88.90;;;;;;5047629;28;20032;-61
2022/08/02 04:17:58;;;;;;;6.38;1.42;;;14.70;89.50;;;;;;5047821;28;20071;-61
2022/08/02 04:20:30;;;;;;;4.53;1.50;;;14.80;90.00;;;;;;5047857;28;20028;-62
2022/08/02 04:23:05;;;;;;;5.57;1.90;;;14.70;90.40;;;;;;5047086;28;20052;-62
2022/08/02 04:25:32;;;;;;;3.17;1.90;;;14.70;90.90;;;;;;5046761;28;20108;-62
2022/08/02 04:27:59;;;;;;;5.32;2.08;;;14.80;91.20;;;;;;5045936;28;20026;-61
2022/08/02 04:30:25;;;;;;;3.65;1.63;;;14.80;91.40;;;;;;5047871;28;20025;-62
2022/08/02 04:32:51;;;;;;;3.92;2.13;;;14.80;91.70;;;;;;5028364;28;20135;-61
2022/08/02 04:35:17;;;;;;;2.95;1.67;;;14.80;91.80;;;;;;5046665;28;20029;-61
2022/08/02 04:37:43;;;;;;;4.65;2.00;;;14.90;91.90;;;;;;5045551;28;20484;-61
2022/08/02 04:40:10;;;;;;;3.53;2.33;;;14.90;92.10;;;;;;5047808;28;20115;-61
2022/08/02 04:42:37;;;;;;;4.60;2.00;;;14.90;92.20;;;;;;5045631;28;20020;-61
2022/08/02 04:45:04;;;;;;;6.05;2.65;;;15.00;92.40;;;;;;5046054;28;20037;-61
2022/08/02 04:47:30;;;;;;;5.63;2.42;;;15.00;92.60;;;;;;5046005;28;20052;-61
2022/08/02 04:49:55;;;;;;;7.18;2.30;;;15.00;92.60;;;;;;5047130;28;20491;-62
2022/08/02 04:52:21;;;;;;;4.80;2.85;;;15.00;92.70;;;;;;5047439;28;20025;-61
2022/08/02 04:54:46;;;;;;;4.97;2.65;;;15.00;92.80;;;;;;5051791;28;20028;-61
2022/08/02 04:59:56;;;;;;;5.82;2.70;;;15.00;93.10;;;;;;5049634;28;20060;-61
2022/08/02 05:02:21;;;;;;;5.00;2.65;;;15.00;93.30;;;;;;5050079;28;21723;-61
2022/08/02 05:04:47;;;;;;;9.00;2.67;;;15.00;93.30;;;;;;5049057;28;20094;-61
2022/08/02 05:07:13;;;;;;;4.85;2.45;;;15.00;93.30;;;;;;5051273;28;20044;-61
2022/08/02 05:09:38;;;;;;;5.22;2.83;;;15.10;93.50;;;;;;5050876;28;20071;-61
2022/08/02 05:12:05;;;;;;;5.43;2.80;;;15.10;93.60;;;;;;5046794;28;20026;-61
2022/08/02 05:14:30;;;;;;;4.25;2.72;;;15.20;93.50;;;;;;5041120;28;20116;-61
2022/08/02 05:16:56;;;;;;;5.28;3.03;;;15.20;93.50;;;;;;5044412;28;20104;-62
2022/08/02 05:19:21;;;;;;;6.18;2.88;;;15.20;93.60;;;;;;5044196;28;20029;-61
2022/08/02 05:21:47;;;;;;;5.85;3.25;;;15.30;93.70;;;;;;5038518;28;20026;-61
2022/08/02 05:24:12;;;;;;;7.38;3.42;;;15.30;93.70;;;;;;5040352;28;20025;-61
2022/08/02 05:26:38;;;;;;;8.77;3.80;;;15.30;93.70;;;;;;5038105;28;20025;-61
2022/08/02 05:29:04;;;;;;;6.22;3.40;;;15.40;93.60;;;;;;5039990;28;20021;-61
2022/08/02 05:31:30;;;;;;;8.00;3.95;;;15.40;93.70;;;;;;5038643;28;20512;-61
2022/08/02 05:33:55;;;;;;;7.95;4.20;;;15.50;93.60;;;;;;5041018;28;20025;-62
2022/08/02 05:36:21;;;;;;;8.35;3.85;;;15.60;93.50;;;;;;5038130;28;20032;-61
2022/08/02 05:38:46;;;;;;;7.72;4.07;;;15.60;93.50;;;;;;5040517;28;20029;-61
2022/08/02 05:41:12;;;;;;;7.85;3.78;;;15.60;93.50;;;;;;5038273;28;20025;-61
2022/08/02 05:43:37;;;;;;;5.53;3.72;;;15.70;93.30;;;;;;5040768;28;20025;-61
2022/08/02 05:46:03;;;;;;;7.40;4.32;;;15.80;93.30;;;;;;5020438;28;20025;-61
2022/08/02 05:48:28;;;;;;;9.95;4.35;;;15.80;93.40;;;;;;5040534;28;20465;-61
2022/08/02 05:51:02;;;;;;;7.07;4.07;;;15.80;93.40;;;;;;5046078;28;20025;-61
2022/08/02 05:53:33;;;;;;;6.22;4.15;;;15.90;93.50;;;;;;5044220;28;20040;-61
2022/08/02 05:56:07;;;;;;;10.50;4.60;;;15.90;93.60;;;;;;5044621;28;20033;-61
2022/08/02 05:58:48;;;;;;;8.85;4.28;;;16.00;93.60;;;;;;5035049;28;20144;-61
2022/08/02 06:01:27;;;;;;;7.25;4.25;;;16.10;93.80;;;;;;5035100;28;20025;-61
2022/08/02 06:03:56;;;;;;;7.73;5.73;;;16.20;93.70;;;;;;5032851;28;20052;-61
2022/08/02 06:06:24;;;;;;;8.27;5.30;;;16.20;93.80;;;;;;5036080;28;20771;-61
2022/08/02 06:08:57;;;;;;;8.18;4.72;;;16.30;93.80;;;;;;5054392;28;20473;-61
2022/08/02 06:11:23;;;;;;;9.80;5.55;;;16.30;93.80;;;;;;5045054;28;20032;-61
2022/08/02 06:13:50;;;;;;;7.43;4.70;;;16.40;93.90;;;;;;5053064;28;20052;-61
2022/08/02 06:16:16;;;;;;;8.45;5.03;;;16.40;93.90;;;;;;5048967;28;20025;-62
2022/08/02 06:18:42;;;;;;;9.30;4.82;;;16.50;94.00;;;;;;5049936;28;20029;-61
2022/08/02 06:21:09;;;;;;;8.70;4.75;;;16.60;94.00;;;;;;5051995;28;20055;-62
2022/08/02 06:23:39;;;;;;;7.43;4.80;;;16.70;94.20;;;;;;5053565;28;20029;-61
2022/08/02 06:26:06;;;;;;;8.63;5.47;;;16.80;94.20;;;;;;5051265;28;20017;-61
2022/08/02 06:28:35;;;;;;;10.52;5.80;;;16.80;94.30;;;;;;5047906;28;20036;-61
2022/08/02 06:31:01;;;;;;;8.73;5.43;;;16.90;94.60;;;;;;5037086;28;20116;-61
2022/08/02 06:33:27;;;;;;;9.77;6.20;;;17.00;94.70;;;;;;5039703;28;20112;-61
2022/08/02 06:36:09;;;;;;;8.35;5.45;;;17.10;94.50;;;;;;5036872;28;20404;-61
2022/08/02 06:38:46;;;;;;;10.00;5.60;;;17.30;94.50;;;;;;5035627;28;20025;-61
2022/08/02 06:41:14;;;;;;;8.60;6.63;;;17.30;94.50;;;;;;5038957;28;20032;-62
2022/08/02 06:44:00;;;;;;;7.30;6.10;;;17.40;94.60;;;;;;5037032;28;20034;-61
2022/08/02 06:46:26;;;;;;;9.02;7.35;;;17.50;94.30;;;;;;5042932;28;20056;-61
2022/08/02 06:48:52;;;;;;;12.60;6.85;;;17.60;94.30;;;;;;5033295;28;20116;-62
2022/08/02 06:51:17;;;;;;;9.95;6.93;;;17.70;94.20;;;;;;5046918;28;20112;-62
2022/08/02 06:53:43;;;;;;;9.68;7.15;;;17.80;94.30;;;;;;5041347;28;20428;-61
2022/08/02 06:56:09;;;;;;;10.55;7.50;;;17.90;94.40;;;;;;5049852;28;20036;-61
2022/08/02 06:58:35;;;;;;;14.00;8.13;;;18.00;94.20;;;;;;5051235;28;20025;-62
2022/08/02 07:01:01;;;;;;;11.18;8.30;;;18.20;94.30;;;;;;5050905;28;20464;-62
2022/08/02 07:03:27;;;;;;;12.93;9.57;;;18.30;94.30;;;;;;5048280;28;20127;-61
2022/08/02 07:05:53;;;;;;;14.00;9.15;;;18.40;93.80;;;;;;5049725;28;20112;-61
2022/08/02 07:08:19;;;;;;;8.90;7.95;;;18.50;93.90;;;;;;5051186;28;20393;-62
2022/08/02 07:10:45;;;;;;;12.52;8.60;;;18.60;93.70;;;;;;5049944;28;20032;-61
2022/08/02 07:13:10;;;;;;;9.60;8.07;;;18.70;93.70;;;;;;5034984;28;20025;-61
2022/08/02 07:15:39;;;;;;;12.32;9.60;;;18.80;93.50;;;;;;5048974;28;20280;-61
2022/08/02 07:18:05;;;;;;;11.68;9.43;;;18.90;93.50;;;;;;5042340;28;20033;-61
2022/08/02 07:20:31;;;;;;;14.40;8.30;;;19.00;93.50;;;;;;5041041;28;20429;-62
2022/08/02 07:22:57;;;;;;;9.30;7.68;;;19.20;93.20;;;;;;5041745;28;20018;-61
2022/08/02 07:25:23;;;;;;;8.98;7.15;;;19.20;93.00;;;;;;5040298;28;20029;-61
2022/08/02 07:27:48;;;;;;;12.98;10.05;;;19.40;93.00;;;;;;5040547;28;20084;-62
2022/08/02 07:30:15;;;;;;;13.50;10.18;;;19.50;92.80;;;;;;5042856;28;20021;-61
2022/08/02 07:32:40;;;;;;;11.88;9.15;;;19.60;92.90;;;;;;5050034;28;20017;-61
2022/08/02 07:35:07;;;;;;;11.35;9.70;;;19.80;92.70;;;;;;5050262;28;20035;-61
2022/08/02 07:37:34;;;;;;;12.40;9.18;;;19.90;92.40;;;;;;5047278;28;20022;-61
2022/08/02 07:39:59;;;;;;;9.55;8.32;;;20.00;92.30;;;;;;5024446;28;20236;-62
2022/08/02 07:42:25;;;;;;;12.05;9.02;;;20.10;91.80;;;;;;5045505;28;20382;-61
2022/08/02 07:44:51;;;;;;;11.60;8.52;;;20.20;91.70;;;;;;5049763;28;20060;-61
2022/08/02 07:47:16;;;;;;;9.60;7.15;;;20.20;91.60;;;;;;5048337;28;20354;-61
2022/08/02 07:49:42;;;;;;;10.68;7.07;;;20.30;91.40;;;;;;5049621;28;20020;-62
2022/08/02 07:52:08;;;;;;;11.93;7.20;;;20.40;91.30;;;;;;5031791;28;20032;-61
2022/08/02 07:54:33;;;;;;;13.00;8.68;;;20.50;91.20;;;;;;5052736;28;20362;-61
2022/08/02 07:56:59;;;;;;;9.73;8.25;;;20.50;90.80;;;;;;5034225;28;20037;-61
2022/08/02 07:59:26;;;;;;;11.57;8.82;;;20.60;91.00;;;;;;5033595;28;20113;-61
2022/08/02 08:01:52;;;;;;;9.93;7.13;;;20.70;90.80;;;;;;5033770;28;20033;-61
2022/08/02 08:04:18;;;;;;;9.48;8.45;;;20.80;90.60;;;;;;5033684;28;20128;-62
2022/08/02 08:06:44;;;;;;;11.43;8.38;;;20.80;90.80;;;;;;5037580;28;20025;-61
2022/08/02 08:09:10;;;;;;;9.30;7.25;;;21.00;90.10;;;;;;5048727;28;20036;-61
2022/08/02 08:11:36;;;;;;;11.13;7.45;;;21.10;90.20;;;;;;5051869;28;20079;-61
2022/08/02 08:14:05;;;;;;;8.32;7.15;;;21.20;90.30;;;;;;5043218;28;20539;-61
2022/08/02 08:16:30;;;;;;;8.63;7.70;;;21.30;89.00;;;;;;5042936;28;20021;-62
2022/08/02 08:18:56;;;;;;;6.75;5.18;;;21.40;88.50;;;;;;5051129;28;20048;-61
2022/08/02 08:21:21;;;;;;;5.05;4.47;;;21.50;88.50;;;;;;5031140;28;20031;-61
2022/08/02 08:23:47;;;;;;;7.10;4.82;;;21.60;87.70;;;;;;5018404;28;20034;-61
2022/08/02 08:26:13;;;;;;;6.50;4.93;;;21.70;86.90;;;;;;5035584;28;20033;-61
2022/08/02 08:28:38;;;;;;;7.82;4.82;;;21.80;86.10;;;;;;5033354;28;20025;-61
2022/08/02 08:31:04;;;;;;;5.10;4.00;;;21.90;85.80;;;;;;5041550;28;20037;-61
2022/08/02 08:33:29;;;;;;;5.60;4.28;;;22.00;85.70;;;;;;5044791;28;20430;-61
2022/08/02 08:35:55;;;;;;;5.40;3.45;;;22.10;85.40;;;;;;5050733;28;20472;-61
2022/08/02 08:38:21;;;;;;;5.32;4.50;;;22.20;84.80;;;;;;5048005;28;20025;-62
2022/08/02 08:40:51;;;;;;;5.85;3.97;;;22.30;84.80;;;;;;5031616;28;20076;-62
2022/08/02 08:43:16;;;;;;;3.80;2.70;;;22.40;82.80;;;;;;5046574;28;20050;-62
2022/08/02 08:45:43;;;;;;;2.58;2.10;;;22.50;82.10;;;;;;5046470;28;20112;-61
2022/08/02 08:48:15;;;;;;;2.55;1.77;;;22.60;80.80;;;;;;5048306;28;20455;-61
2022/08/02 08:50:52;;;;;;;4.35;1.55;;;22.60;79.30;;;;;;5031761;28;20029;-62
2022/08/02 08:53:20;;;;;;;3.67;1.90;;;22.70;78.50;;;;;;5039700;28;20019;-62
2022/08/02 08:55:46;;;;;;;2.33;1.30;;;22.80;77.90;;;;;;5033757;28;20018;-62
2022/08/02 08:58:12;;;;;;;2.33;1.75;;;22.90;76.30;;;;;;5034872;28;20095;-62
2022/08/02 09:00:40;;;;;;;5.72;2.13;;;23.00;76.00;;;;;;5033570;28;20014;-62
2022/08/02 09:03:08;;;;;;;3.90;2.20;;;23.00;75.70;;;;;;5033373;28;20037;-62
2022/08/02 09:05:40;;;;;;;4.73;2.13;;;23.10;75.90;;;;;;5033758;28;20080;-61
2022/08/02 09:08:15;;;;;;;4.75;1.92;;;23.20;76.60;;;;;;5046808;28;20101;-61
2022/08/02 09:10:47;;;;;;;3.80;2.10;;;23.20;76.30;;;;;;5045713;28;20389;-62
2022/08/02 09:13:19;;;;;;;2.10;1.60;;;23.30;76.60;;;;;;5046336;28;20472;-62
2022/08/02 09:16:09;;;;;;;2.13;1.55;;;23.40;75.50;;;;;;5032242;28;20047;-62
2022/08/02 09:18:38;;;;;;;2.38;1.50;;;23.40;74.70;;;;;;5048248;28;20485;-61
2022/08/02 09:21:05;;;;;;;2.53;1.33;;;23.50;73.70;;;;;;5048242;28;20025;-62
2022/08/02 09:23:36;;;;;;;4.32;1.10;;;23.50;72.90;;;;;;5050001;28;20165;-61
2022/08/02 09:26:08;;;;;;;3.05;1.00;;;23.50;72.30;;;;;;5048470;28;20026;-62
2022/08/02 09:28:36;;;;;;;3.72;1.08;;;23.60;72.50;;;;;;5048858;28;20070;-61
2022/08/02 09:31:05;;;;;;;2.03;1.00;;;23.70;71.40;;;;;;5045350;28;20515;-62
2022/08/02 09:33:30;;;;;;;1.77;1.00;;;23.80;70.40;;;;;;5049949;28;20059;-62
2022/08/02 09:36:01;;;;;;;1.50;0.80;;;23.80;70.00;;;;;;5048934;28;20033;-62
2022/08/02 09:38:28;;;;;;;1.58;0.68;;;23.90;70.30;;;;;;5048615;28;20503;-62
2022/08/02 09:40:53;;;;;;;1.17;0.65;;;24.00;70.10;;;;;;5048872;28;20112;-61
2022/08/02 09:43:19;;;;;;;2.42;1.00;;;24.10;70.00;;;;;;5032708;28;20108;-62
2022/08/02 09:45:45;;;;;;;1.20;0.90;;;24.20;69.00;;;;;;5050822;28;20021;-62
2022/08/02 09:48:11;;;;;;;1.70;0.73;;;24.20;67.50;;;;;;5052114;28;20035;-62
2022/08/02 09:50:38;;;;;;;1.08;0.60;;;24.20;67.10;;;;;;5031987;28;20024;-62
2022/08/02 09:53:05;;;;;;;2.45;0.80;;;24.30;66.70;;;;;;5051379;28;20420;-62
2022/08/02 09:55:30;;;;;;;1.35;0.60;;;24.30;65.90;;;;;;5040308;28;20021;-62
2022/08/02 09:57:56;;;;;;;2.30;0.70;;;24.30;65.60;;;;;;5054546;28;20388;-62
2022/08/02 10:00:22;;;;;;;1.30;0.70;;;24.40;65.80;;;;;;5054244;28;20045;-62
2022/08/02 10:03:08;;;;;;;2.17;0.70;;;24.50;66.30;;;;;;5032267;28;20037;-62
2022/08/02 10:05:48;;;;;;;0.80;0.60;;;24.70;66.00;;;;;;5051291;28;20033;-61
2022/08/02 10:08:13;;;;;;;;;;;24.80;64.70;;;;;;5034468;28;20443;-62
2022/08/02 10:10:40;;;;;;;1.67;0.85;;;24.70;64.90;;;;;;5051617;28;19912;-62
2022/08/02 10:13:06;;;;;;;1.25;0.60;;;24.80;63.80;;;;;;5049007;28;20017;-62
2022/08/02 10:15:32;;;;;;;1.20;0.68;;;24.90;63.40;;;;;;5052182;28;20488;-62
2022/08/02 10:17:58;;;;;;;1.30;0.77;;;25.00;62.90;;;;;;5050677;28;20029;-62
2022/08/02 10:20:24;;;;;;;1.95;0.55;;;25.00;62.00;;;;;;5052859;28;20021;-62
2022/08/02 10:22:52;;;;;;;1.10;0.60;;;25.10;61.70;;;;;;5034858;28;20021;-62
2022/08/02 10:25:20;;;;;;;3.55;0.75;;;25.20;60.70;;;;;;5052173;28;20060;-62
2022/08/02 10:27:47;;;;;;;2.85;1.00;;;25.40;60.80;;;;;;5052071;28;20763;-62
2022/08/02 10:30:13;;;;;;;0.82;0.60;;;25.40;60.00;;;;;;5051151;28;20056;-62
2022/08/02 10:32:44;;;;;;;1.00;0.73;;;25.60;60.10;;;;;;5048995;28;20414;-62
2022/08/02 10:35:13;;;;;;;1.20;0.55;;;25.70;59.20;;;;;;5051852;28;20029;-61
2022/08/02 10:37:40;;;;;;;1.13;0.80;;;25.80;58.60;;;;;;5037192;28;20115;-62
2022/08/02 10:40:26;;;;;;;1.45;0.60;;;25.90;58.30;;;;;;5034479;28;20540;-62
2022/08/02 10:42:53;;;;;;;1.48;0.60;;;26.10;58.30;;;;;;5035555;28;20044;-62
2022/08/02 10:45:21;;;;;;;1.40;0.77;;;26.30;58.10;;;;;;5036771;28;20163;-62
2022/08/02 10:48:00;;;;;;;1.45;0.75;;;26.50;57.60;;;;;;5034331;28;20104;-62
2022/08/02 10:50:44;;;;;;;1.35;0.68;;;26.60;57.00;;;;;;5036181;28;20023;-62
2022/08/02 10:53:33;;;;;;;3.00;1.00;;;26.70;56.20;;;;;;5046018;28;20485;-62
2022/08/02 10:56:01;;;;;;;1.48;0.70;;;26.70;55.30;;;;;;5048634;28;20043;-62
2022/08/02 10:58:31;;;;;;;0.70;0.60;;;26.80;55.60;;;;;;5048013;28;20025;-62
2022/08/02 11:00:58;;;;;;;2.47;0.80;;;26.90;55.10;;;;;;5051639;28;20535;-62
2022/08/02 11:03:26;;;;;;;0.90;0.60;;;26.80;54.00;;;;;;5048788;28;20421;-62
2022/08/02 11:06:08;;;;;;;2.30;0.63;;;26.80;54.20;;;;;;5050581;28;20032;-62
2022/08/02 11:08:42;;;;;;;1.90;0.60;;;27.00;53.80;;;;;;5047283;28;20108;-62
2022/08/02 11:11:07;;;;;;;0.93;0.60;;;27.00;53.70;;;;;;5032288;28;20031;-62
2022/08/02 11:14:03;;;;;;;0.75;0.47;;;27.10;53.50;;;;;;5050550;28;20025;-62
2022/08/02 11:16:54;;;;;;;1.88;0.60;;;27.30;53.50;;;;;;5045056;28;20032;-62
2022/08/02 11:19:19;;;;;;;1.48;0.70;;;27.40;53.00;;;;;;5050830;28;20020;-62
2022/08/02 11:21:59;;;;;;;1.45;0.68;;;27.40;52.90;;;;;;5041375;28;20500;-62
2022/08/02 11:24:30;;;;;;;1.52;0.60;;;27.50;51.40;;;;;;5044306;28;20028;-62
2022/08/02 11:26:57;;;;;;;1.20;0.60;;;27.50;51.70;;;;;;5044932;28;20048;-62
2022/08/02 11:29:54;;;;;;;1.48;0.50;;;27.70;51.50;;;;;;5044718;28;20068;-62
2022/08/02 11:32:22;;;;;;;1.73;0.68;;;27.90;51.20;;;;;;5040943;28;20025;-62
2022/08/02 11:34:50;;;;;;;0.80;0.60;;;28.10;51.40;;;;;;5042206;28;20025;-62
2022/08/02 11:37:35;;;;;;;2.22;0.63;;;28.30;50.40;;;;;;5047427;28;20060;-62
2022/08/02 11:40:07;;;;;;;3.70;0.88;;;28.40;50.40;;;;;;5047561;28;20056;-62
2022/08/02 11:42:37;;;;;;;1.73;0.60;;;28.50;49.90;;;;;;5042262;28;20081;-63
2022/08/02 11:45:04;;;;;;;1.35;0.63;;;28.60;50.40;;;;;;5048075;28;20033;-62
2022/08/02 11:47:31;;;;;;;2.50;0.90;;;28.90;50.00;;;;;;5043629;28;20386;-62
2022/08/02 11:50:09;;;;;;;0.98;0.50;;;29.20;49.20;;;;;;5029192;28;20477;-62
2022/08/02 11:52:36;;;;;;;3.17;0.90;;;29.50;49.30;;;;;;5024253;28;20028;-62
2022/08/02 11:55:04;;;;;;;1.20;0.73;;;29.80;48.80;;;;;;5048184;28;20120;-62
2022/08/02 11:57:30;;;;;;;1.10;0.63;;;29.90;48.10;;;;;;5041500;28;20036;-62
2022/08/02 12:00:01;;;;;;;1.77;0.40;;;29.80;46.60;;;;;;5042399;28;20028;-62
2022/08/02 12:02:28;;;;;;;1.60;0.60;;;29.80;47.20;;;;;;5041067;28;20041;-62
2022/08/02 12:05:00;;;;;;;0.68;0.47;;;30.00;47.40;;;;;;5040652;28;20052;-62
2022/08/02 12:07:30;;;;;;;1.02;0.40;;;30.10;46.50;;;;;;5047620;28;20017;-62
2022/08/02 12:10:08;;;;;;;2.22;0.60;;;30.20;45.90;;;;;;5051054;28;20029;-62
2022/08/02 12:12:47;;;;;;;1.95;0.50;;;30.10;46.10;;;;;;5045562;28;20112;-62
2022/08/02 12:15:13;;;;;;;1.25;0.50;;;30.00;45.70;;;;;;5048639;28;20021;-62
2022/08/02 12:20:35;;;;;;;1.60;0.60;;;30.10;45.30;;;;;;5052460;28;20043;-62
2022/08/02 12:23:04;;;;;;;0.77;0.60;;;30.00;44.60;;;;;;5045703;28;20108;-62
2022/08/02 12:25:33;;;;;;;1.10;0.50;;;29.90;45.10;;;;;;5035441;28;20026;-63
2022/08/02 12:28:24;;;;;;;0.65;0.50;;;30.00;44.70;;;;;;5029990;28;20363;-62
2022/08/02 12:30:58;;;;;;;2.83;0.50;;;30.10;44.10;;;;;;5037400;28;20124;-62
2022/08/02 12:33:28;;;;;;;2.40;0.70;;;30.20;44.20;;;;;;5049743;28;20036;-62
2022/08/02 12:35:54;;;;;;;1.15;0.50;;;30.10;43.70;;;;;;5032052;28;20029;-62
2022/08/02 12:38:21;;;;;;;0.88;0.60;;;30.00;44.00;;;;;;5046930;28;20025;-62
2022/08/02 12:40:46;;;;;;;1.02;0.40;;;30.00;44.00;;;;;;5046442;28;20061;-62
2022/08/02 12:43:26;;;;;;;1.63;0.50;;;30.00;43.60;;;;;;5045299;28;20057;-62
2022/08/02 12:45:55;;;;;;;0.63;0.40;;;29.90;43.80;;;;;;5048684;28;20306;-63
2022/08/02 12:48:39;;;;;;;1.13;0.40;;;29.80;44.10;;;;;;5049336;28;20392;-62
2022/08/02 12:51:37;;;;;;;1.45;0.50;;;29.90;43.70;;;;;;5047748;28;20060;-62
2022/08/02 12:54:18;;;;;;;0.70;0.30;;;30.00;43.10;;;;;;4988831;28;20047;-62
2022/08/02 12:56:44;;;;;;;2.55;0.60;;;30.00;43.20;;;;;;5045955;28;20033;-62
2022/08/02 12:59:10;;;;;;;0.70;0.50;;;30.10;42.80;;;;;;5048653;28;20036;-63